Terminal Aerodrome Forecast
Issued by NWS

Home | Current Version | Previous Version | Text Only | Print | Product List | Glossary On
Versions: 1 2 3 4 5 6 7 8 9 10 11 12 13 14 15
000
FTUS46 KHNX 010741 AAA
TAFFAT
TAF AMD
KFAT 010741Z 0108/0206 14006KT 4SM -RA SCT030 OVC050
     FM011700 15005KT P6SM VCSH SCT050 BKN070
     FM012100 31007KT P6SM SKC=

USA.gov is the U.S. government's official web portal to all federal, state and local government web resources and services.